createdAt,value
2019-02-08T00:00:26.790Z,30.43
2019-02-08T00:02:55.459Z,28.73
2019-02-08T00:05:24.244Z,33.73
2019-02-08T00:07:53.295Z,30.55
2019-02-08T00:10:22.102Z,32.55
2019-02-08T00:12:50.797Z,31.27
2019-02-08T00:15:22.171Z,31.80
2019-02-08T00:17:50.886Z,33.25
2019-02-08T00:20:21.647Z,33.08
2019-02-08T00:22:50.469Z,33.85
2019-02-08T00:25:23.388Z,33.63
2019-02-08T00:27:52.189Z,31.45
2019-02-08T00:30:23.484Z,33.23
2019-02-08T00:32:52.334Z,32.23
2019-02-08T00:35:21.067Z,33.67
2019-02-08T00:37:50.327Z,34.60
2019-02-08T00:40:21.577Z,32.50
2019-02-08T00:42:50.224Z,32.63
2019-02-08T00:45:20.322Z,34.00
2019-02-08T00:47:49.129Z,32.05
2019-02-08T00:50:25.863Z,33.50
2019-02-08T00:52:54.513Z,32.53
2019-02-08T00:55:23.199Z,32.08
2019-02-08T00:57:51.849Z,31.93
2019-02-08T01:00:21.028Z,32.13
2019-02-08T01:02:50.705Z,32.90
2019-02-08T01:05:23.117Z,33.05
2019-02-08T01:07:52.584Z,31.45
2019-02-08T01:10:29.442Z,33.80
2019-02-08T01:12:58.513Z,31.25
2019-02-08T01:15:28.368Z,32.93
2019-02-08T01:17:57.118Z,34.70
2019-02-08T01:20:26.371Z,33.73
2019-02-08T01:22:55.183Z,34.73
2019-02-08T01:25:28.826Z,32.83
2019-02-08T01:27:57.517Z,31.20
2019-02-08T01:30:33.609Z,31.60
2019-02-08T01:33:02.282Z,32.80
2019-02-08T01:35:30.932Z,31.45
2019-02-08T01:38:00.658Z,33.00
2019-02-08T01:40:37.179Z,33.28
2019-02-08T01:43:07.403Z,34.00
2019-02-08T01:45:36.066Z,33.53
2019-02-08T01:48:07.082Z,32.15
2019-02-08T01:50:35.774Z,31.65
2019-02-08T01:53:04.918Z,32.60
2019-02-08T01:55:33.598Z,33.18
2019-02-08T01:58:02.231Z,33.10
2019-02-08T02:00:33.013Z,33.42
2019-02-08T02:03:02.567Z,32.85
2019-02-08T02:05:31.254Z,33.90
2019-02-08T02:07:59.892Z,33.78
2019-02-08T02:10:32.944Z,33.18
2019-02-08T02:13:01.572Z,32.00
2019-02-08T02:15:30.252Z,32.48
2019-02-08T02:17:58.892Z,32.53
2019-02-08T02:20:33.436Z,32.25
2019-02-08T02:23:02.070Z,33.00
2019-02-08T02:25:30.703Z,31.45
2019-02-08T02:27:59.383Z,34.03
2019-02-08T02:30:31.156Z,32.23
2019-02-08T02:32:59.822Z,33.33
2019-02-08T02:35:28.455Z,34.27
2019-02-08T02:37:57.139Z,35.48
2019-02-08T02:40:25.783Z,34.03
2019-02-08T02:42:54.483Z,35.03
2019-02-08T02:45:31.614Z,37.00
2019-02-08T02:48:00.307Z,35.23
2019-02-08T02:50:28.950Z,39.10
2019-02-08T02:52:57.637Z,36.33
2019-02-08T02:55:28.271Z,35.00
2019-02-08T02:57:56.903Z,35.58
2019-02-08T03:00:40.566Z,34.30
2019-02-08T03:03:09.205Z,34.48
2019-02-08T03:05:37.882Z,34.92
2019-02-08T03:08:08.780Z,34.00
2019-02-08T03:10:37.446Z,34.75
2019-02-08T03:13:06.176Z,39.10
2019-02-08T03:15:34.847Z,34.60
2019-02-08T03:18:03.469Z,37.03
2019-02-08T03:20:32.132Z,36.90
2019-02-08T03:23:00.770Z,35.17
2019-02-08T03:25:29.893Z,34.48
2019-02-08T03:27:58.589Z,32.42
2019-02-08T03:30:32.802Z,35.50
2019-02-08T03:33:01.442Z,33.18
2019-02-08T03:35:30.080Z,34.60
2019-02-08T03:37:58.752Z,33.98
2019-02-08T03:40:29.645Z,32.83
2019-02-08T03:42:58.331Z,32.60
2019-02-08T03:45:28.543Z,33.78
2019-02-08T03:47:57.237Z,34.65
2019-02-08T03:50:25.868Z,32.28
2019-02-08T03:52:55.044Z,30.45
2019-02-08T03:55:24.300Z,28.50
2019-02-08T03:57:52.977Z,29.95
2019-02-08T04:00:29.156Z,27.15
2019-02-08T04:02:57.932Z,26.52
2019-02-08T04:05:26.567Z,26.60
2019-02-08T04:07:55.702Z,28.80
2019-02-08T04:10:24.370Z,26.97
2019-02-08T04:12:52.992Z,29.52
2019-02-08T04:15:24.315Z,33.02
2019-02-08T04:17:52.961Z,30.20
2019-02-08T04:20:27.807Z,31.57
2019-02-08T04:22:56.636Z,29.65
2019-02-08T04:25:25.924Z,29.45
2019-02-08T04:27:54.944Z,30.60
2019-02-08T04:30:26.185Z,28.20
2019-02-08T04:32:54.809Z,29.50
2019-02-08T04:35:23.530Z,30.05
2019-02-08T04:37:52.146Z,31.70
2019-02-08T04:40:22.294Z,32.30
2019-02-08T04:42:51.014Z,33.95
2019-02-08T04:45:19.747Z,34.65
2019-02-08T04:47:48.416Z,32.55
2019-02-08T04:50:24.700Z,32.80
2019-02-08T04:52:53.362Z,34.48
2019-02-08T04:55:22.000Z,36.53
2019-02-08T04:57:50.694Z,34.90
2019-02-08T05:00:25.402Z,36.45
2019-02-08T05:02:54.132Z,42.17
2019-02-08T05:05:22.789Z,40.95
2019-02-08T05:07:51.471Z,48.00
2019-02-08T05:10:23.071Z,45.75
2019-02-08T05:12:51.703Z,43.83
2019-02-08T05:15:20.404Z,43.75
2019-02-08T05:17:49.157Z,42.53
2019-02-08T05:20:20.398Z,41.37
2019-02-08T05:22:49.041Z,37.85
2019-02-08T05:25:17.867Z,38.88
2019-02-08T05:27:46.516Z,36.77
2019-02-08T05:30:20.800Z,39.30
2019-02-08T05:32:49.528Z,36.20
2019-02-08T05:35:18.231Z,38.25
2019-02-08T05:37:46.867Z,36.98
2019-02-08T05:40:17.893Z,39.55
2019-02-08T05:42:46.586Z,40.50
2019-02-08T05:45:20.960Z,35.95
2019-02-08T05:47:49.783Z,30.92
2019-02-08T05:50:26.663Z,29.90
2019-02-08T05:52:55.442Z,31.80
2019-02-08T05:55:31.468Z,40.30
2019-02-08T05:58:00.145Z,49.03
2019-02-08T06:00:32.345Z,55.05
2019-02-08T06:03:01.023Z,65.32
2019-02-08T06:05:29.655Z,52.80
2019-02-08T06:07:58.368Z,49.55
2019-02-08T06:10:27.003Z,47.25
2019-02-08T06:12:55.653Z,50.67
2019-02-08T06:15:25.590Z,41.90
2019-02-08T06:17:54.264Z,44.15
2019-02-08T06:20:24.627Z,47.53
2019-02-08T06:22:53.261Z,38.38
2019-02-08T06:25:22.729Z,44.20
2019-02-08T06:27:51.361Z,41.75
2019-02-08T06:30:25.603Z,52.43
2019-02-08T06:32:54.258Z,66.22
2019-02-08T06:35:24.337Z,56.70
2019-02-08T06:37:52.981Z,44.98
2019-02-08T06:40:23.903Z,53.38
2019-02-08T06:42:52.547Z,57.20
2019-02-08T06:45:23.640Z,64.27
2019-02-08T06:47:52.282Z,78.25
2019-02-08T06:50:23.086Z,55.40
2019-02-08T06:52:51.746Z,39.33
2019-02-08T06:55:20.407Z,34.05
2019-02-08T06:58:08.962Z,29.67
2019-02-08T07:00:48.348Z,31.90
2019-02-08T07:03:24.586Z,32.17
2019-02-08T07:05:57.908Z,46.33
2019-02-08T07:08:31.102Z,35.08
2019-02-08T07:11:07.332Z,33.83
2019-02-08T07:13:53.964Z,44.30
2019-02-08T07:16:27.022Z,54.13
2019-02-08T07:18:57.312Z,49.93
2019-02-08T07:21:33.602Z,66.65
2019-02-08T07:24:20.007Z,63.00
2019-02-08T07:27:08.739Z,66.85
2019-02-08T07:29:54.032Z,64.85
2019-02-08T07:32:27.107Z,62.78
2019-02-08T07:35:15.408Z,47.10
2019-02-08T07:37:45.683Z,42.90
2019-02-08T07:40:27.422Z,42.15
2019-02-08T07:43:03.426Z,55.00
2019-02-08T07:45:50.248Z,41.98
2019-02-08T07:48:20.502Z,36.63
2019-02-08T07:50:53.717Z,33.10
2019-02-08T07:53:30.062Z,29.27
2019-02-08T07:56:03.262Z,30.35
2019-02-08T07:58:33.633Z,29.77
2019-02-08T08:01:03.853Z,31.60
2019-02-08T08:03:49.328Z,29.50
2019-02-08T08:06:25.359Z,28.83
2019-02-08T08:09:01.396Z,30.05
2019-02-08T08:11:34.667Z,30.50
2019-02-08T08:14:11.100Z,29.45
2019-02-08T08:16:58.022Z,28.47
2019-02-08T08:19:40.333Z,28.23
2019-02-08T08:22:22.608Z,30.65
2019-02-08T08:24:52.925Z,39.65
2019-02-08T08:27:23.141Z,35.85
2019-02-08T08:29:53.346Z,33.08
2019-02-08T08:32:24.291Z,27.87
2019-02-08T08:35:08.044Z,28.20
2019-02-08T08:37:42.507Z,26.75
2019-02-08T08:40:29.146Z,26.33
2019-02-08T08:43:13.011Z,26.75
2019-02-08T08:45:53.526Z,21.68
2019-02-08T08:48:33.640Z,22.77
2019-02-08T08:51:11.586Z,22.13
2019-02-08T08:53:49.380Z,25.57
2019-02-08T08:56:21.182Z,25.35
2019-02-08T08:59:08.236Z,24.55
2019-02-08T09:01:58.180Z,23.10
2019-02-08T09:04:52.581Z,31.97
2019-02-08T09:10:16.197Z,21.93
2019-02-08T09:13:17.705Z,24.95
2019-02-08T09:15:58.269Z,23.30
2019-02-08T09:18:38.935Z,29.40
2019-02-08T09:21:30.208Z,20.23
2019-02-08T09:24:04.657Z,39.90
2019-02-08T09:26:56.752Z,30.35
2019-02-08T09:29:31.225Z,30.23
2019-02-08T09:32:19.495Z,19.30
2019-02-08T09:35:03.305Z,28.05
2019-02-08T09:38:08.466Z,32.25
2019-02-08T09:41:04.265Z,25.85
2019-02-08T09:43:57.270Z,41.18
2019-02-08T09:46:38.285Z,29.98
2019-02-08T09:49:25.315Z,16.75
2019-02-08T09:52:18.411Z,12.33
2019-02-08T09:54:59.411Z,13.62
2019-02-08T09:57:31.215Z,13.53
2019-02-08T10:00:19.349Z,17.15
2019-02-08T10:03:09.586Z,15.28
2019-02-08T10:06:10.165Z,14.95
2019-02-08T10:08:41.966Z,14.50
2019-02-08T10:11:19.551Z,12.98
2019-02-08T10:13:57.462Z,13.48
2019-02-08T10:16:44.420Z,13.32
2019-02-08T10:19:16.226Z,16.20
2019-02-08T10:22:02.931Z,22.65
2019-02-08T10:25:03.580Z,24.25
2019-02-08T10:27:50.351Z,13.98
2019-02-08T10:30:55.597Z,12.82
2019-02-08T10:33:30.291Z,13.05
2019-02-08T10:36:35.281Z,10.23
2019-02-08T10:39:36.072Z,12.00
2019-02-08T10:42:42.727Z,10.75
2019-02-08T10:45:47.817Z,9.10
2019-02-08T10:48:52.989Z,9.25
2019-02-08T10:51:33.611Z,11.20
2019-02-08T10:54:25.201Z,10.68
2019-02-08T10:57:15.227Z,15.23
2019-02-08T11:00:03.791Z,9.45
2019-02-08T11:02:50.597Z,10.53
2019-02-08T11:05:56.968Z,11.03
2019-02-08T11:08:53.229Z,9.40
2019-02-08T11:11:50.596Z,11.35
2019-02-08T11:14:34.210Z,9.38
2019-02-08T11:17:22.490Z,8.33
2019-02-08T11:19:57.182Z,9.35
2019-02-08T11:22:25.817Z,9.80
2019-02-08T11:24:54.489Z,9.68
2019-02-08T11:27:23.127Z,11.28
2019-02-08T11:29:51.877Z,10.50
2019-02-08T11:32:20.598Z,9.73
2019-02-08T11:34:49.237Z,9.90
2019-02-08T11:37:17.930Z,10.15
2019-02-08T11:39:46.596Z,8.70
2019-02-08T11:42:15.269Z,9.93
2019-02-08T11:44:43.929Z,8.58
2019-02-08T11:47:12.737Z,8.48
2019-02-08T11:49:41.456Z,12.18
2019-02-08T11:52:10.177Z,10.82
2019-02-08T11:54:38.869Z,14.28
2019-02-08T11:57:07.557Z,11.35
2019-02-08T11:59:36.259Z,8.78
2019-02-08T12:02:05.748Z,8.55
2019-02-08T12:04:34.557Z,8.65
2019-02-08T12:07:03.249Z,8.80
2019-02-08T12:09:31.887Z,8.78
2019-02-08T12:12:00.570Z,9.15
2019-02-08T12:14:30.556Z,8.05
2019-02-08T12:16:59.391Z,9.18
2019-02-08T12:19:28.198Z,8.43
2019-02-08T12:21:56.956Z,7.67
2019-02-08T12:24:25.608Z,8.25
2019-02-08T12:26:54.393Z,7.05
2019-02-08T12:29:23.091Z,7.30
2019-02-08T12:31:51.749Z,8.13
2019-02-08T12:34:20.371Z,7.28
2019-02-08T12:36:49.129Z,7.58
2019-02-08T12:39:17.786Z,7.67
2019-02-08T12:41:46.550Z,7.90
2019-02-08T12:44:15.212Z,12.63
2019-02-08T12:46:43.910Z,8.85
2019-02-08T12:49:12.546Z,14.15
2019-02-08T12:51:41.226Z,14.38
2019-02-08T12:54:09.888Z,14.80
2019-02-08T12:56:45.339Z,14.13
2019-02-08T12:59:08.968Z,13.30
2019-02-08T13:01:38.085Z,13.35
2019-02-08T13:04:06.889Z,14.23
2019-02-08T13:06:35.609Z,13.48
2019-02-08T13:09:05.869Z,13.62
2019-02-08T13:11:34.570Z,12.73
2019-02-08T13:14:03.228Z,13.75
2019-02-08T13:16:31.887Z,14.80
2019-02-08T13:19:00.592Z,15.88
2019-02-08T13:21:29.251Z,17.27
2019-02-08T13:23:58.030Z,16.45
2019-02-08T13:26:26.690Z,15.20
2019-02-08T13:28:55.390Z,15.63
2019-02-08T13:31:24.109Z,17.52
2019-02-08T13:33:52.849Z,17.92
2019-02-08T13:36:21.528Z,21.17
2019-02-08T13:38:50.168Z,19.25
2019-02-08T13:41:18.854Z,17.87
2019-02-08T13:43:47.528Z,16.42
2019-02-08T13:46:16.211Z,17.27
2019-02-08T13:48:44.887Z,18.10
2019-02-08T13:51:13.549Z,18.55
2019-02-08T13:53:42.228Z,19.45
2019-02-08T13:56:10.949Z,18.48
2019-02-08T13:58:39.628Z,16.82
2019-02-08T14:01:08.288Z,16.82
2019-02-08T14:03:37.015Z,16.85
2019-02-08T14:06:06.682Z,17.30
2019-02-08T14:08:35.410Z,19.95
2019-02-08T14:11:04.088Z,20.70
2019-02-08T14:13:40.236Z,21.00
2019-02-08T14:16:03.232Z,19.50
2019-02-08T14:18:31.910Z,25.80
2019-02-08T14:21:00.569Z,30.20
2019-02-08T14:23:29.269Z,34.05
2019-02-08T14:25:57.988Z,34.55
2019-02-08T14:28:26.739Z,35.52
2019-02-08T14:30:55.564Z,34.55
2019-02-08T14:33:24.414Z,35.40
2019-02-08T14:35:53.122Z,36.45
2019-02-08T14:38:21.966Z,36.80
2019-02-08T14:40:50.768Z,37.35
2019-02-08T14:43:19.527Z,36.20
2019-02-08T14:45:48.212Z,36.53
2019-02-08T14:48:16.977Z,34.75
2019-02-08T14:50:45.726Z,32.83
2019-02-08T14:53:14.447Z,31.48
2019-02-08T14:55:43.164Z,28.98
2019-02-08T14:58:11.923Z,30.62
2019-02-08T15:00:40.652Z,28.32
2019-02-08T15:03:09.442Z,29.90
2019-02-08T15:05:38.204Z,30.48
2019-02-08T15:08:07.003Z,37.60
2019-02-08T15:10:39.009Z,35.13
2019-02-08T15:13:07.738Z,37.23
2019-02-08T15:15:36.483Z,35.63
2019-02-08T15:18:05.924Z,35.05
2019-02-08T15:20:36.932Z,33.45
2019-02-08T15:23:06.243Z,35.73
2019-02-08T15:25:35.046Z,29.18
2019-02-08T15:28:03.743Z,31.40
2019-02-08T15:30:34.409Z,30.27
2019-02-08T15:33:03.124Z,30.50
2019-02-08T15:35:32.022Z,37.23
2019-02-08T15:38:01.442Z,38.80
2019-02-08T15:40:38.804Z,40.58
2019-02-08T15:43:08.683Z,37.78
2019-02-08T15:45:37.884Z,35.88
2019-02-08T15:48:06.616Z,35.80
2019-02-08T15:50:35.412Z,36.90
2019-02-08T15:53:04.243Z,37.98
2019-02-08T15:55:42.523Z,36.58
2019-02-08T15:58:12.562Z,32.93
2019-02-08T16:00:41.345Z,34.95
2019-02-08T16:03:11.090Z,33.73
2019-02-08T16:05:40.103Z,33.50
2019-02-08T16:08:08.844Z,34.18
2019-02-08T16:10:43.074Z,32.30
2019-02-08T16:13:16.685Z,33.38
2019-02-08T16:15:45.924Z,32.63
2019-02-08T16:18:14.935Z,31.00
2019-02-08T16:20:43.608Z,30.05
2019-02-08T16:23:12.443Z,31.57
2019-02-08T16:25:42.135Z,30.17
2019-02-08T16:28:11.007Z,30.68
2019-02-08T16:30:39.802Z,27.27
2019-02-08T16:33:09.271Z,27.55
2019-02-08T16:35:38.204Z,28.98
2019-02-08T16:38:07.504Z,25.92
2019-02-08T16:40:36.371Z,26.80
2019-02-08T16:43:06.365Z,29.02
2019-02-08T16:45:36.964Z,30.05
2019-02-08T16:48:08.404Z,27.80
2019-02-08T16:50:49.164Z,33.50
2019-02-08T16:53:18.245Z,30.60
2019-02-08T16:55:49.051Z,31.27
2019-02-08T16:58:26.483Z,31.60
2019-02-08T17:00:55.492Z,30.92
2019-02-08T17:03:24.562Z,30.55
2019-02-08T17:06:07.204Z,32.08
2019-02-08T17:08:37.884Z,31.37
2019-02-08T17:11:06.806Z,36.15
2019-02-08T17:13:35.924Z,37.80
2019-02-08T17:16:04.964Z,33.90
2019-02-08T17:18:34.044Z,68.87
2019-02-08T17:21:03.084Z,72.45
2019-02-08T17:23:32.164Z,57.10
2019-02-08T17:26:01.204Z,48.90
2019-02-08T17:28:30.173Z,39.60
2019-02-08T17:30:59.176Z,37.48
2019-02-08T17:33:28.284Z,36.85
2019-02-08T17:35:57.932Z,37.73
2019-02-08T17:38:26.963Z,37.40
2019-02-08T17:40:55.773Z,34.88
2019-02-08T17:43:24.701Z,43.73
2019-02-08T17:45:54.357Z,33.65
2019-02-08T17:48:23.563Z,67.55
2019-02-08T17:50:52.644Z,62.53
2019-02-08T17:53:21.564Z,58.00
2019-02-08T17:55:50.684Z,56.90
2019-02-08T17:58:19.644Z,57.45
2019-02-08T18:00:52.843Z,58.87
2019-02-08T18:03:21.774Z,61.35
2019-02-08T18:05:50.540Z,65.05
2019-02-08T18:08:19.418Z,67.55
2019-02-08T18:10:48.375Z,68.28
2019-02-08T18:13:18.062Z,72.32
2019-02-08T18:15:47.062Z,79.30
2019-02-08T18:18:17.362Z,82.53
2019-02-08T18:20:56.122Z,85.75
2019-02-08T18:23:26.366Z,85.55
2019-02-08T18:25:55.292Z,79.90
2019-02-08T18:28:24.299Z,79.77
2019-02-08T18:30:53.282Z,75.92
2019-02-08T18:33:22.124Z,81.55
2019-02-08T18:35:51.125Z,78.90
2019-02-08T18:38:20.047Z,87.30
2019-02-08T18:40:49.108Z,82.10
2019-02-08T18:43:18.021Z,84.70
2019-02-08T18:45:48.690Z,83.07
2019-02-08T18:48:17.764Z,85.03
2019-02-08T18:50:52.150Z,86.20
2019-02-08T18:53:21.174Z,83.55
2019-02-08T18:55:50.046Z,85.95
2019-02-08T18:58:19.582Z,70.30
2019-02-08T19:00:51.132Z,84.50
2019-02-08T19:03:20.163Z,85.72
2019-02-08T19:05:48.990Z,82.62
2019-02-08T19:08:18.003Z,75.40
2019-02-08T19:10:46.837Z,79.17
2019-02-08T19:13:15.846Z,85.17
2019-02-08T19:15:44.802Z,74.12
2019-02-08T19:18:13.884Z,73.75
2019-02-08T19:20:42.894Z,72.53
2019-02-08T19:23:12.007Z,67.17
2019-02-08T19:25:43.172Z,72.17
2019-02-08T19:28:13.244Z,73.55
2019-02-08T19:30:43.724Z,70.45
2019-02-08T19:33:12.848Z,75.35
2019-02-08T19:35:41.886Z,79.40
2019-02-08T19:38:10.885Z,72.25
2019-02-08T19:40:44.966Z,78.50
2019-02-08T19:43:14.571Z,62.43
2019-02-08T19:45:43.489Z,57.00
2019-02-08T19:48:12.564Z,56.55
2019-02-08T19:50:43.893Z,51.75
2019-02-08T19:53:12.964Z,54.83
2019-02-08T19:55:42.009Z,50.83
2019-02-08T19:58:11.728Z,49.83
2019-02-08T20:00:42.399Z,49.48
2019-02-08T20:03:11.425Z,52.95
2019-02-08T20:05:40.441Z,50.23
2019-02-08T20:08:11.120Z,48.73
2019-02-08T20:10:45.761Z,56.18
2019-02-08T20:13:14.720Z,68.28
2019-02-08T20:15:43.759Z,49.50
2019-02-08T20:18:13.200Z,49.10
2019-02-08T20:20:42.080Z,46.15
2019-02-08T20:23:11.160Z,48.50
2019-02-08T20:25:40.200Z,44.30
2019-02-08T20:28:09.367Z,44.38
2019-02-08T20:30:38.281Z,46.77
2019-02-08T20:33:07.381Z,40.33
2019-02-08T20:35:36.301Z,41.65
2019-02-08T20:38:05.781Z,40.10
2019-02-08T20:40:36.721Z,39.05
2019-02-08T20:43:05.503Z,40.45
2019-02-08T20:45:35.362Z,39.98
2019-02-08T20:48:10.041Z,41.83
2019-02-08T20:50:38.881Z,41.75
2019-02-08T20:53:07.861Z,44.20
2019-02-08T20:55:36.840Z,44.60
2019-02-08T20:58:07.022Z,48.48
2019-02-08T21:00:37.862Z,46.23
2019-02-08T21:03:08.760Z,47.85
2019-02-08T21:05:37.625Z,49.75
2019-02-08T21:08:07.319Z,46.85
2019-02-08T21:10:36.758Z,49.88
2019-02-08T21:13:09.325Z,52.23
2019-02-08T21:15:38.200Z,51.37
2019-02-08T21:18:07.601Z,53.80
2019-02-08T21:20:38.033Z,53.17
2019-02-08T21:23:07.421Z,51.77
2019-02-08T21:25:41.360Z,52.38
2019-02-08T21:28:10.360Z,52.73
2019-02-08T21:30:39.407Z,50.55
2019-02-08T21:33:09.942Z,51.80
2019-02-08T21:35:38.881Z,54.45
2019-02-08T21:38:08.422Z,54.88
2019-02-08T21:40:37.299Z,53.85
2019-02-08T21:43:06.709Z,55.08
2019-02-08T21:45:38.022Z,55.08
2019-02-08T21:48:08.324Z,57.03
2019-02-08T21:50:37.161Z,58.50
2019-02-08T21:53:06.202Z,56.75
2019-02-08T21:55:35.205Z,56.80
2019-02-08T21:58:03.982Z,59.20
2019-02-08T22:00:35.459Z,57.30
2019-02-08T22:03:04.819Z,60.63
2019-02-08T22:05:36.123Z,55.30
2019-02-08T22:08:04.981Z,57.30
2019-02-08T22:10:33.780Z,54.60
2019-02-08T22:13:02.462Z,58.10
2019-02-08T22:15:39.902Z,63.08
2019-02-08T22:18:09.580Z,63.33
2019-02-08T22:20:38.481Z,56.55
2019-02-08T22:23:07.202Z,57.15
2019-02-08T22:25:35.901Z,56.33
2019-02-08T22:28:04.641Z,52.30
2019-02-08T22:30:33.369Z,52.10
2019-02-08T22:33:10.589Z,55.38
2019-02-08T22:35:39.362Z,56.28
2019-02-08T22:38:09.096Z,56.10
2019-02-08T22:40:37.984Z,54.93
2019-02-08T22:43:06.901Z,53.92
2019-02-08T22:45:42.959Z,58.78
2019-02-08T22:48:11.598Z,55.95
2019-02-08T22:50:40.300Z,58.00
2019-02-08T22:53:09.200Z,50.70
2019-02-08T22:55:37.981Z,51.00
2019-02-08T22:58:08.359Z,58.15
2019-02-08T23:00:44.643Z,57.50
2019-02-08T23:03:15.462Z,56.88
2019-02-08T23:05:45.729Z,55.28
2019-02-08T23:08:14.522Z,54.93
2019-02-08T23:10:43.202Z,52.55
2019-02-08T23:13:12.462Z,54.48
2019-02-08T23:15:41.141Z,53.05
2019-02-08T23:18:13.441Z,50.73
2019-02-08T23:20:42.145Z,50.70
2019-02-08T23:23:10.781Z,48.50
2019-02-08T23:25:39.481Z,42.60
2019-02-08T23:28:08.141Z,46.23
2019-02-08T23:30:36.819Z,46.23
2019-02-08T23:33:05.764Z,49.10
2019-02-08T23:35:34.463Z,49.48
2019-02-08T23:38:03.120Z,49.23
2019-02-08T23:40:31.922Z,54.75
2019-02-08T23:43:00.719Z,51.90
2019-02-08T23:45:29.404Z,50.28
2019-02-08T23:47:58.062Z,49.42
2019-02-08T23:50:26.841Z,51.30
2019-02-08T23:52:55.505Z,49.85
2019-02-08T23:55:25.120Z,48.00
2019-02-08T23:57:53.779Z,47.33
